sensor_id;sensor_type;location;lat;lon;timestamp;P1;durP1;ratioP1;P2;durP2;ratioP2
21162;SDS011;10739;52.198;20.908;2023-01-08T00:01:10;90.85;;;44.28;;
21162;SDS011;10739;52.198;20.908;2023-01-08T00:03:37;93.80;;;44.85;;
21162;SDS011;10739;52.198;20.908;2023-01-08T00:06:06;94.05;;;44.00;;
21162;SDS011;10739;52.198;20.908;2023-01-08T00:08:36;95.55;;;41.95;;
21162;SDS011;10739;52.198;20.908;2023-01-08T00:11:03;97.28;;;44.83;;
21162;SDS011;10739;52.198;20.908;2023-01-08T00:13:29;91.80;;;42.63;;
21162;SDS011;10739;52.198;20.908;2023-01-08T00:15:56;89.53;;;41.95;;
21162;SDS011;10739;52.198;20.908;2023-01-08T00:18:28;88.70;;;41.55;;
21162;SDS011;10739;52.198;20.908;2023-01-08T00:20:57;87.53;;;42.60;;
21162;SDS011;10739;52.198;20.908;2023-01-08T00:23:27;88.85;;;42.67;;
21162;SDS011;10739;52.198;20.908;2023-01-08T00:25:54;86.30;;;40.72;;
21162;SDS011;10739;52.198;20.908;2023-01-08T00:28:21;81.00;;;38.22;;
21162;SDS011;10739;52.198;20.908;2023-01-08T00:30:47;82.97;;;40.38;;
21162;SDS011;10739;52.198;20.908;2023-01-08T00:33:14;80.10;;;40.60;;
21162;SDS011;10739;52.198;20.908;2023-01-08T00:35:42;84.28;;;39.15;;
21162;SDS011;10739;52.198;20.908;2023-01-08T00:38:08;81.00;;;37.83;;
21162;SDS011;10739;52.198;20.908;2023-01-08T00:40:35;76.40;;;36.80;;
21162;SDS011;10739;52.198;20.908;2023-01-08T00:43:01;78.10;;;38.45;;
21162;SDS011;10739;52.198;20.908;2023-01-08T00:45:28;86.95;;;40.00;;
21162;SDS011;10739;52.198;20.908;2023-01-08T00:47:55;80.38;;;38.00;;
21162;SDS011;10739;52.198;20.908;2023-01-08T00:50:22;83.72;;;37.88;;
21162;SDS011;10739;52.198;20.908;2023-01-08T00:52:48;73.72;;;37.40;;
21162;SDS011;10739;52.198;20.908;2023-01-08T00:55:15;72.28;;;36.35;;
21162;SDS011;10739;52.198;20.908;2023-01-08T00:57:42;77.35;;;37.05;;
21162;SDS011;10739;52.198;20.908;2023-01-08T01:00:11;70.88;;;35.60;;
21162;SDS011;10739;52.198;20.908;2023-01-08T01:02:40;73.07;;;35.60;;
21162;SDS011;10739;52.198;20.908;2023-01-08T01:05:07;66.75;;;36.05;;
21162;SDS011;10739;52.198;20.908;2023-01-08T01:07:35;69.82;;;35.63;;
21162;SDS011;10739;52.198;20.908;2023-01-08T01:10:02;73.30;;;35.65;;
21162;SDS011;10739;52.198;20.908;2023-01-08T01:12:29;73.75;;;34.10;;
21162;SDS011;10739;52.198;20.908;2023-01-08T01:14:55;67.18;;;34.80;;
21162;SDS011;10739;52.198;20.908;2023-01-08T01:17:21;67.78;;;34.42;;
21162;SDS011;10739;52.198;20.908;2023-01-08T01:19:48;60.63;;;32.85;;
21162;SDS011;10739;52.198;20.908;2023-01-08T01:22:14;64.35;;;34.30;;
21162;SDS011;10739;52.198;20.908;2023-01-08T01:24:40;70.40;;;34.58;;
21162;SDS011;10739;52.198;20.908;2023-01-08T01:27:07;62.42;;;33.08;;
21162;SDS011;10739;52.198;20.908;2023-01-08T01:29:34;66.70;;;35.30;;
21162;SDS011;10739;52.198;20.908;2023-01-08T01:32:00;61.00;;;33.40;;
21162;SDS011;10739;52.198;20.908;2023-01-08T01:34:26;62.83;;;33.67;;
21162;SDS011;10739;52.198;20.908;2023-01-08T01:36:53;63.22;;;34.45;;
21162;SDS011;10739;52.198;20.908;2023-01-08T01:39:19;53.90;;;32.28;;
21162;SDS011;10739;52.198;20.908;2023-01-08T01:41:45;62.60;;;32.60;;
21162;SDS011;10739;52.198;20.908;2023-01-08T01:47:19;55.53;;;32.95;;
21162;SDS011;10739;52.198;20.908;2023-01-08T01:49:57;58.05;;;31.63;;
21162;SDS011;10739;52.198;20.908;2023-01-08T01:53:06;44.97;;;24.52;;
21162;SDS011;10739;52.198;20.908;2023-01-08T01:55:41;56.67;;;31.98;;
21162;SDS011;10739;52.198;20.908;2023-01-08T02:00:45;65.80;;;34.28;;
21162;SDS011;10739;52.198;20.908;2023-01-08T02:03:12;58.97;;;33.60;;
21162;SDS011;10739;52.198;20.908;2023-01-08T02:05:55;60.15;;;31.98;;
21162;SDS011;10739;52.198;20.908;2023-01-08T02:08:49;59.80;;;33.13;;
21162;SDS011;10739;52.198;20.908;2023-01-08T02:11:46;63.47;;;32.70;;
21162;SDS011;10739;52.198;20.908;2023-01-08T02:14:55;60.90;;;32.75;;
21162;SDS011;10739;52.198;20.908;2023-01-08T02:17:49;60.88;;;32.53;;
21162;SDS011;10739;52.198;20.908;2023-01-08T02:20:46;57.90;;;31.48;;
21162;SDS011;10739;52.198;20.908;2023-01-08T02:26:31;52.10;;;31.58;;
21162;SDS011;10739;52.198;20.908;2023-01-08T02:31:36;55.20;;;31.20;;
21162;SDS011;10739;52.198;20.908;2023-01-08T02:34:06;57.08;;;32.13;;
21162;SDS011;10739;52.198;20.908;2023-01-08T02:36:49;55.17;;;32.90;;
21162;SDS011;10739;52.198;20.908;2023-01-08T02:39:23;55.50;;;32.47;;
21162;SDS011;10739;52.198;20.908;2023-01-08T02:48:14;48.28;;;30.13;;
21162;SDS011;10739;52.198;20.908;2023-01-08T02:53:34;50.03;;;27.90;;
21162;SDS011;10739;52.198;20.908;2023-01-08T02:56:21;39.38;;;25.00;;
21162;SDS011;10739;52.198;20.908;2023-01-08T02:58:54;42.70;;;24.92;;
21162;SDS011;10739;52.198;20.908;2023-01-08T03:01:24;38.05;;;24.52;;
21162;SDS011;10739;52.198;20.908;2023-01-08T03:03:55;36.53;;;23.13;;
21162;SDS011;10739;52.198;20.908;2023-01-08T03:06:29;35.45;;;22.20;;
21162;SDS011;10739;52.198;20.908;2023-01-08T03:08:57;33.92;;;21.88;;
21162;SDS011;10739;52.198;20.908;2023-01-08T03:11:28;37.53;;;21.73;;
21162;SDS011;10739;52.198;20.908;2023-01-08T03:14:06;34.53;;;21.60;;
21162;SDS011;10739;52.198;20.908;2023-01-08T03:16:48;33.00;;;20.38;;
21162;SDS011;10739;52.198;20.908;2023-01-08T03:19:39;33.83;;;20.50;;
21162;SDS011;10739;52.198;20.908;2023-01-08T03:22:15;31.52;;;20.10;;
21162;SDS011;10739;52.198;20.908;2023-01-08T03:24:45;34.00;;;20.70;;
21162;SDS011;10739;52.198;20.908;2023-01-08T03:27:16;32.67;;;19.90;;
21162;SDS011;10739;52.198;20.908;2023-01-08T03:29:51;32.42;;;20.73;;
21162;SDS011;10739;52.198;20.908;2023-01-08T03:32:22;37.67;;;21.92;;
21162;SDS011;10739;52.198;20.908;2023-01-08T03:34:54;34.10;;;20.67;;
21162;SDS011;10739;52.198;20.908;2023-01-08T03:37:28;37.08;;;21.98;;
21162;SDS011;10739;52.198;20.908;2023-01-08T03:40:05;32.38;;;22.45;;
21162;SDS011;10739;52.198;20.908;2023-01-08T03:42:48;36.20;;;21.60;;
21162;SDS011;10739;52.198;20.908;2023-01-08T03:45:14;32.85;;;20.80;;
21162;SDS011;10739;52.198;20.908;2023-01-08T03:47:41;29.50;;;20.30;;
21162;SDS011;10739;52.198;20.908;2023-01-08T03:50:10;31.45;;;19.77;;
21162;SDS011;10739;52.198;20.908;2023-01-08T03:52:45;31.42;;;19.88;;
21162;SDS011;10739;52.198;20.908;2023-01-08T03:55:12;35.78;;;21.23;;
21162;SDS011;10739;52.198;20.908;2023-01-08T03:57:38;36.53;;;21.13;;
21162;SDS011;10739;52.198;20.908;2023-01-08T04:00:04;36.20;;;21.08;;
21162;SDS011;10739;52.198;20.908;2023-01-08T04:02:32;33.90;;;21.20;;
21162;SDS011;10739;52.198;20.908;2023-01-08T04:04:58;33.38;;;20.48;;
21162;SDS011;10739;52.198;20.908;2023-01-08T04:07:24;34.25;;;21.05;;
21162;SDS011;10739;52.198;20.908;2023-01-08T04:09:51;31.65;;;19.65;;
21162;SDS011;10739;52.198;20.908;2023-01-08T04:12:17;33.60;;;20.70;;
21162;SDS011;10739;52.198;20.908;2023-01-08T04:14:44;35.72;;;19.73;;
21162;SDS011;10739;52.198;20.908;2023-01-08T04:17:10;32.03;;;20.58;;
21162;SDS011;10739;52.198;20.908;2023-01-08T04:19:37;30.48;;;19.35;;
21162;SDS011;10739;52.198;20.908;2023-01-08T04:22:04;34.92;;;19.67;;
21162;SDS011;10739;52.198;20.908;2023-01-08T04:24:30;37.65;;;22.17;;
21162;SDS011;10739;52.198;20.908;2023-01-08T04:26:56;34.42;;;21.70;;
21162;SDS011;10739;52.198;20.908;2023-01-08T04:29:23;31.23;;;19.90;;
21162;SDS011;10739;52.198;20.908;2023-01-08T04:31:49;34.47;;;20.77;;
21162;SDS011;10739;52.198;20.908;2023-01-08T04:34:16;34.13;;;20.98;;
21162;SDS011;10739;52.198;20.908;2023-01-08T04:36:42;31.42;;;20.27;;
21162;SDS011;10739;52.198;20.908;2023-01-08T04:39:09;30.65;;;19.80;;
21162;SDS011;10739;52.198;20.908;2023-01-08T04:41:36;35.25;;;21.13;;
21162;SDS011;10739;52.198;20.908;2023-01-08T04:44:02;32.30;;;19.80;;
21162;SDS011;10739;52.198;20.908;2023-01-08T04:46:29;31.52;;;18.98;;
21162;SDS011;10739;52.198;20.908;2023-01-08T04:48:55;31.50;;;19.73;;
21162;SDS011;10739;52.198;20.908;2023-01-08T04:51:22;30.35;;;19.27;;
21162;SDS011;10739;52.198;20.908;2023-01-08T04:53:50;31.05;;;20.08;;
21162;SDS011;10739;52.198;20.908;2023-01-08T04:56:17;30.83;;;19.63;;
21162;SDS011;10739;52.198;20.908;2023-01-08T04:58:43;31.90;;;18.98;;
21162;SDS011;10739;52.198;20.908;2023-01-08T05:01:11;32.30;;;19.58;;
21162;SDS011;10739;52.198;20.908;2023-01-08T05:03:56;30.73;;;19.20;;
21162;SDS011;10739;52.198;20.908;2023-01-08T05:06:29;31.55;;;18.98;;
21162;SDS011;10739;52.198;20.908;2023-01-08T05:08:57;31.70;;;20.38;;
21162;SDS011;10739;52.198;20.908;2023-01-08T05:11:24;34.50;;;20.02;;
21162;SDS011;10739;52.198;20.908;2023-01-08T05:13:51;31.95;;;20.48;;
21162;SDS011;10739;52.198;20.908;2023-01-08T05:16:18;31.50;;;19.33;;
21162;SDS011;10739;52.198;20.908;2023-01-08T05:18:45;34.45;;;20.13;;
21162;SDS011;10739;52.198;20.908;2023-01-08T05:21:12;30.58;;;19.67;;
21162;SDS011;10739;52.198;20.908;2023-01-08T05:23:39;31.98;;;18.45;;
21162;SDS011;10739;52.198;20.908;2023-01-08T05:28:39;28.35;;;17.35;;
21162;SDS011;10739;52.198;20.908;2023-01-08T05:31:06;33.60;;;18.55;;
21162;SDS011;10739;52.198;20.908;2023-01-08T05:33:32;32.05;;;17.85;;
21162;SDS011;10739;52.198;20.908;2023-01-08T05:35:59;28.25;;;16.15;;
21162;SDS011;10739;52.198;20.908;2023-01-08T05:38:28;30.48;;;16.60;;
21162;SDS011;10739;52.198;20.908;2023-01-08T05:40:54;24.10;;;15.85;;
21162;SDS011;10739;52.198;20.908;2023-01-08T05:43:21;21.83;;;14.82;;
21162;SDS011;10739;52.198;20.908;2023-01-08T05:45:47;24.42;;;15.27;;
21162;SDS011;10739;52.198;20.908;2023-01-08T05:48:13;23.70;;;14.38;;
21162;SDS011;10739;52.198;20.908;2023-01-08T05:50:39;25.88;;;15.32;;
21162;SDS011;10739;52.198;20.908;2023-01-08T05:53:06;23.83;;;15.10;;
21162;SDS011;10739;52.198;20.908;2023-01-08T05:55:34;23.00;;;13.38;;
21162;SDS011;10739;52.198;20.908;2023-01-08T05:58:02;19.52;;;12.82;;
21162;SDS011;10739;52.198;20.908;2023-01-08T06:00:31;22.23;;;14.07;;
21162;SDS011;10739;52.198;20.908;2023-01-08T06:02:59;23.92;;;13.75;;
21162;SDS011;10739;52.198;20.908;2023-01-08T06:05:26;20.63;;;14.10;;
21162;SDS011;10739;52.198;20.908;2023-01-08T06:07:52;17.98;;;12.88;;
21162;SDS011;10739;52.198;20.908;2023-01-08T06:10:19;20.35;;;13.60;;
21162;SDS011;10739;52.198;20.908;2023-01-08T06:12:45;25.95;;;13.13;;
21162;SDS011;10739;52.198;20.908;2023-01-08T06:15:11;23.30;;;12.82;;
21162;SDS011;10739;52.198;20.908;2023-01-08T06:17:38;23.17;;;13.98;;
21162;SDS011;10739;52.198;20.908;2023-01-08T06:20:04;21.38;;;13.07;;
21162;SDS011;10739;52.198;20.908;2023-01-08T06:22:32;20.25;;;12.60;;
21162;SDS011;10739;52.198;20.908;2023-01-08T06:24:59;21.75;;;13.52;;
21162;SDS011;10739;52.198;20.908;2023-01-08T06:27:26;22.13;;;14.27;;
21162;SDS011;10739;52.198;20.908;2023-01-08T06:29:54;22.75;;;12.80;;
21162;SDS011;10739;52.198;20.908;2023-01-08T06:32:21;24.75;;;14.35;;
21162;SDS011;10739;52.198;20.908;2023-01-08T06:34:47;22.65;;;14.30;;
21162;SDS011;10739;52.198;20.908;2023-01-08T06:37:13;22.58;;;13.30;;
21162;SDS011;10739;52.198;20.908;2023-01-08T06:39:40;25.58;;;14.23;;
21162;SDS011;10739;52.198;20.908;2023-01-08T06:42:06;22.45;;;12.75;;
21162;SDS011;10739;52.198;20.908;2023-01-08T06:44:33;22.08;;;13.18;;
21162;SDS011;10739;52.198;20.908;2023-01-08T06:46:59;25.90;;;13.38;;
21162;SDS011;10739;52.198;20.908;2023-01-08T06:49:25;21.65;;;12.93;;
21162;SDS011;10739;52.198;20.908;2023-01-08T06:51:52;20.13;;;14.02;;
21162;SDS011;10739;52.198;20.908;2023-01-08T06:54:18;23.02;;;12.65;;
21162;SDS011;10739;52.198;20.908;2023-01-08T06:56:47;18.70;;;12.75;;
21162;SDS011;10739;52.198;20.908;2023-01-08T06:59:14;25.70;;;13.73;;
21162;SDS011;10739;52.198;20.908;2023-01-08T07:01:40;24.05;;;13.70;;
21162;SDS011;10739;52.198;20.908;2023-01-08T07:04:07;23.17;;;12.63;;
21162;SDS011;10739;52.198;20.908;2023-01-08T07:06:34;19.45;;;12.40;;
21162;SDS011;10739;52.198;20.908;2023-01-08T07:09:00;25.10;;;13.25;;
21162;SDS011;10739;52.198;20.908;2023-01-08T07:11:26;26.63;;;12.52;;
21162;SDS011;10739;52.198;20.908;2023-01-08T07:13:54;24.50;;;13.02;;
21162;SDS011;10739;52.198;20.908;2023-01-08T07:16:24;24.65;;;13.82;;
21162;SDS011;10739;52.198;20.908;2023-01-08T07:18:51;23.15;;;13.55;;
21162;SDS011;10739;52.198;20.908;2023-01-08T07:21:17;24.23;;;13.25;;
21162;SDS011;10739;52.198;20.908;2023-01-08T07:23:47;28.85;;;13.82;;
21162;SDS011;10739;52.198;20.908;2023-01-08T07:26:16;25.60;;;13.68;;
21162;SDS011;10739;52.198;20.908;2023-01-08T07:28:43;25.10;;;13.23;;
21162;SDS011;10739;52.198;20.908;2023-01-08T07:31:09;25.45;;;14.32;;
21162;SDS011;10739;52.198;20.908;2023-01-08T07:33:36;21.83;;;13.10;;
21162;SDS011;10739;52.198;20.908;2023-01-08T07:36:03;29.42;;;13.77;;
21162;SDS011;10739;52.198;20.908;2023-01-08T07:38:30;24.02;;;13.75;;
21162;SDS011;10739;52.198;20.908;2023-01-08T07:40:57;23.48;;;14.07;;
21162;SDS011;10739;52.198;20.908;2023-01-08T07:43:23;21.83;;;13.05;;
21162;SDS011;10739;52.198;20.908;2023-01-08T07:45:50;20.15;;;13.20;;
21162;SDS011;10739;52.198;20.908;2023-01-08T07:48:17;27.65;;;13.38;;
21162;SDS011;10739;52.198;20.908;2023-01-08T07:50:43;20.23;;;13.02;;
21162;SDS011;10739;52.198;20.908;2023-01-08T07:53:10;25.42;;;14.07;;
21162;SDS011;10739;52.198;20.908;2023-01-08T07:55:41;25.30;;;12.93;;
21162;SDS011;10739;52.198;20.908;2023-01-08T07:58:09;24.33;;;14.00;;
21162;SDS011;10739;52.198;20.908;2023-01-08T08:00:38;25.40;;;14.02;;
21162;SDS011;10739;52.198;20.908;2023-01-08T08:03:06;22.00;;;13.32;;
21162;SDS011;10739;52.198;20.908;2023-01-08T08:05:35;26.52;;;13.40;;
21162;SDS011;10739;52.198;20.908;2023-01-08T08:08:06;25.02;;;13.90;;
21162;SDS011;10739;52.198;20.908;2023-01-08T08:10:34;21.98;;;13.45;;
21162;SDS011;10739;52.198;20.908;2023-01-08T08:13:01;22.83;;;12.93;;
21162;SDS011;10739;52.198;20.908;2023-01-08T08:15:28;22.33;;;13.52;;
21162;SDS011;10739;52.198;20.908;2023-01-08T08:17:55;25.13;;;13.77;;
21162;SDS011;10739;52.198;20.908;2023-01-08T08:20:21;24.48;;;13.90;;
21162;SDS011;10739;52.198;20.908;2023-01-08T08:22:47;27.92;;;14.10;;
21162;SDS011;10739;52.198;20.908;2023-01-08T08:25:14;24.55;;;13.70;;
21162;SDS011;10739;52.198;20.908;2023-01-08T08:27:41;23.30;;;13.15;;
21162;SDS011;10739;52.198;20.908;2023-01-08T08:30:09;25.52;;;14.13;;
21162;SDS011;10739;52.198;20.908;2023-01-08T08:32:37;26.35;;;14.32;;
21162;SDS011;10739;52.198;20.908;2023-01-08T08:35:04;29.08;;;14.27;;
21162;SDS011;10739;52.198;20.908;2023-01-08T08:37:30;23.23;;;13.90;;
21162;SDS011;10739;52.198;20.908;2023-01-08T08:39:57;25.15;;;15.35;;
21162;SDS011;10739;52.198;20.908;2023-01-08T08:42:23;29.00;;;14.50;;
21162;SDS011;10739;52.198;20.908;2023-01-08T08:44:50;24.95;;;14.07;;
21162;SDS011;10739;52.198;20.908;2023-01-08T08:47:17;25.30;;;15.43;;
21162;SDS011;10739;52.198;20.908;2023-01-08T08:49:43;24.00;;;14.90;;
21162;SDS011;10739;52.198;20.908;2023-01-08T08:52:09;28.00;;;14.75;;
21162;SDS011;10739;52.198;20.908;2023-01-08T08:54:36;24.20;;;13.80;;
21162;SDS011;10739;52.198;20.908;2023-01-08T08:57:06;26.70;;;15.18;;
21162;SDS011;10739;52.198;20.908;2023-01-08T08:59:34;23.80;;;13.30;;
21162;SDS011;10739;52.198;20.908;2023-01-08T09:02:00;27.48;;;13.45;;
21162;SDS011;10739;52.198;20.908;2023-01-08T09:04:29;21.17;;;13.38;;
21162;SDS011;10739;52.198;20.908;2023-01-08T09:06:56;23.88;;;14.15;;
21162;SDS011;10739;52.198;20.908;2023-01-08T09:09:23;25.80;;;13.70;;
21162;SDS011;10739;52.198;20.908;2023-01-08T09:11:51;24.02;;;13.65;;
21162;SDS011;10739;52.198;20.908;2023-01-08T09:14:19;23.70;;;13.75;;
21162;SDS011;10739;52.198;20.908;2023-01-08T09:16:45;25.90;;;14.73;;
21162;SDS011;10739;52.198;20.908;2023-01-08T09:19:12;22.45;;;14.02;;
21162;SDS011;10739;52.198;20.908;2023-01-08T09:21:38;24.33;;;14.52;;
21162;SDS011;10739;52.198;20.908;2023-01-08T09:24:05;26.38;;;14.23;;
21162;SDS011;10739;52.198;20.908;2023-01-08T09:26:32;24.67;;;13.45;;
21162;SDS011;10739;52.198;20.908;2023-01-08T09:28:59;24.58;;;13.60;;
21162;SDS011;10739;52.198;20.908;2023-01-08T09:31:25;23.40;;;12.55;;
21162;SDS011;10739;52.198;20.908;2023-01-08T09:33:52;22.70;;;14.68;;
21162;SDS011;10739;52.198;20.908;2023-01-08T09:36:18;24.15;;;13.70;;
21162;SDS011;10739;52.198;20.908;2023-01-08T09:38:45;26.95;;;13.85;;
21162;SDS011;10739;52.198;20.908;2023-01-08T09:41:22;28.13;;;13.55;;
21162;SDS011;10739;52.198;20.908;2023-01-08T09:43:56;19.02;;;13.05;;
21162;SDS011;10739;52.198;20.908;2023-01-08T09:46:26;24.02;;;14.10;;
21162;SDS011;10739;52.198;20.908;2023-01-08T09:48:54;23.52;;;14.63;;
21162;SDS011;10739;52.198;20.908;2023-01-08T09:51:28;22.30;;;13.25;;
21162;SDS011;10739;52.198;20.908;2023-01-08T09:53:59;21.23;;;13.50;;
21162;SDS011;10739;52.198;20.908;2023-01-08T09:56:27;23.10;;;14.15;;
21162;SDS011;10739;52.198;20.908;2023-01-08T09:58:55;22.80;;;13.25;;
21162;SDS011;10739;52.198;20.908;2023-01-08T10:01:26;27.00;;;12.57;;
21162;SDS011;10739;52.198;20.908;2023-01-08T10:04:09;23.88;;;13.25;;
21162;SDS011;10739;52.198;20.908;2023-01-08T10:09:46;22.48;;;13.73;;
21162;SDS011;10739;52.198;20.908;2023-01-08T10:12:23;22.73;;;13.00;;
21162;SDS011;10739;52.198;20.908;2023-01-08T10:14:57;18.33;;;12.52;;
21162;SDS011;10739;52.198;20.908;2023-01-08T10:17:36;20.35;;;13.63;;
21162;SDS011;10739;52.198;20.908;2023-01-08T10:20:20;24.70;;;13.45;;
21162;SDS011;10739;52.198;20.908;2023-01-08T10:22:50;22.70;;;13.27;;
21162;SDS011;10739;52.198;20.908;2023-01-08T10:25:22;22.25;;;12.98;;
21162;SDS011;10739;52.198;20.908;2023-01-08T10:27:58;23.75;;;14.00;;
21162;SDS011;10739;52.198;20.908;2023-01-08T10:32:56;19.75;;;12.40;;
21162;SDS011;10739;52.198;20.908;2023-01-08T10:35:33;23.25;;;13.02;;
21162;SDS011;10739;52.198;20.908;2023-01-08T10:38:03;18.70;;;12.60;;
21162;SDS011;10739;52.198;20.908;2023-01-08T10:40:39;21.80;;;12.35;;
21162;SDS011;10739;52.198;20.908;2023-01-08T10:49:01;22.35;;;12.45;;
21162;SDS011;10739;52.198;20.908;2023-01-08T10:51:31;20.63;;;12.07;;
21162;SDS011;10739;52.198;20.908;2023-01-08T10:53:59;20.88;;;11.85;;
21162;SDS011;10739;52.198;20.908;2023-01-08T10:56:40;22.48;;;13.07;;
21162;SDS011;10739;52.198;20.908;2023-01-08T10:59:21;26.30;;;13.85;;
21162;SDS011;10739;52.198;20.908;2023-01-08T11:01:51;25.42;;;13.80;;
21162;SDS011;10739;52.198;20.908;2023-01-08T11:04:28;24.90;;;14.37;;
21162;SDS011;10739;52.198;20.908;2023-01-08T11:06:59;22.15;;;13.50;;
21162;SDS011;10739;52.198;20.908;2023-01-08T11:09:30;27.02;;;13.77;;
21162;SDS011;10739;52.198;20.908;2023-01-08T11:12:03;24.42;;;13.68;;
21162;SDS011;10739;52.198;20.908;2023-01-08T11:15:00;28.20;;;15.25;;
21162;SDS011;10739;52.198;20.908;2023-01-08T11:17:29;21.92;;;13.95;;
21162;SDS011;10739;52.198;20.908;2023-01-08T11:22:47;22.60;;;13.93;;
21162;SDS011;10739;52.198;20.908;2023-01-08T11:25:15;24.63;;;14.77;;
21162;SDS011;10739;52.198;20.908;2023-01-08T11:27:50;25.40;;;13.70;;
21162;SDS011;10739;52.198;20.908;2023-01-08T11:30:18;22.45;;;14.43;;
21162;SDS011;10739;52.198;20.908;2023-01-08T11:33:05;25.70;;;14.02;;
21162;SDS011;10739;52.198;20.908;2023-01-08T11:38:17;26.40;;;14.15;;
21162;SDS011;10739;52.198;20.908;2023-01-08T11:46:55;24.20;;;14.35;;
21162;SDS011;10739;52.198;20.908;2023-01-08T11:52:19;28.10;;;14.57;;
21162;SDS011;10739;52.198;20.908;2023-01-08T12:01:04;25.40;;;15.13;;
21162;SDS011;10739;52.198;20.908;2023-01-08T12:04:15;27.05;;;14.27;;
21162;SDS011;10739;52.198;20.908;2023-01-08T12:16:49;26.23;;;15.23;;
21162;SDS011;10739;52.198;20.908;2023-01-08T12:19:29;31.23;;;16.80;;
21162;SDS011;10739;52.198;20.908;2023-01-08T12:37:13;26.77;;;17.42;;
21162;SDS011;10739;52.198;20.908;2023-01-08T12:39:52;28.77;;;17.77;;
21162;SDS011;10739;52.198;20.908;2023-01-08T12:42:37;28.92;;;17.85;;
21162;SDS011;10739;52.198;20.908;2023-01-08T12:45:14;30.83;;;18.17;;
21162;SDS011;10739;52.198;20.908;2023-01-08T12:48:06;29.83;;;19.67;;
21162;SDS011;10739;52.198;20.908;2023-01-08T12:50:50;33.60;;;21.27;;
21162;SDS011;10739;52.198;20.908;2023-01-08T12:56:52;40.05;;;22.88;;
21162;SDS011;10739;52.198;20.908;2023-01-08T13:07:56;35.28;;;23.00;;
21162;SDS011;10739;52.198;20.908;2023-01-08T13:10:48;36.03;;;23.25;;
21162;SDS011;10739;52.198;20.908;2023-01-08T13:13:26;37.35;;;23.55;;
21162;SDS011;10739;52.198;20.908;2023-01-08T13:18:40;38.53;;;23.90;;
21162;SDS011;10739;52.198;20.908;2023-01-08T13:21:30;40.90;;;23.30;;
21162;SDS011;10739;52.198;20.908;2023-01-08T13:29:52;36.42;;;22.02;;
21162;SDS011;10739;52.198;20.908;2023-01-08T13:37:46;36.50;;;22.27;;
21162;SDS011;10739;52.198;20.908;2023-01-08T13:43:15;35.53;;;22.05;;
21162;SDS011;10739;52.198;20.908;2023-01-08T13:48:27;36.75;;;22.05;;
21162;SDS011;10739;52.198;20.908;2023-01-08T13:51:44;37.90;;;22.15;;
21162;SDS011;10739;52.198;20.908;2023-01-08T13:56:46;43.90;;;24.50;;
21162;SDS011;10739;52.198;20.908;2023-01-08T13:59:33;38.55;;;24.42;;
21162;SDS011;10739;52.198;20.908;2023-01-08T14:02:21;42.78;;;26.67;;
21162;SDS011;10739;52.198;20.908;2023-01-08T14:04:51;41.92;;;26.30;;
21162;SDS011;10739;52.198;20.908;2023-01-08T14:07:18;48.53;;;26.48;;
21162;SDS011;10739;52.198;20.908;2023-01-08T14:09:45;45.53;;;27.02;;
21162;SDS011;10739;52.198;20.908;2023-01-08T14:12:22;45.47;;;27.20;;
21162;SDS011;10739;52.198;20.908;2023-01-08T14:14:53;45.13;;;28.25;;
21162;SDS011;10739;52.198;20.908;2023-01-08T14:17:28;48.67;;;28.65;;
21162;SDS011;10739;52.198;20.908;2023-01-08T14:19:57;51.40;;;27.38;;
21162;SDS011;10739;52.198;20.908;2023-01-08T14:22:29;47.40;;;28.58;;
21162;SDS011;10739;52.198;20.908;2023-01-08T14:25:03;47.47;;;28.65;;
21162;SDS011;10739;52.198;20.908;2023-01-08T14:27:32;51.22;;;29.92;;
21162;SDS011;10739;52.198;20.908;2023-01-08T14:29:59;53.42;;;30.25;;
21162;SDS011;10739;52.198;20.908;2023-01-08T14:32:27;49.75;;;28.85;;
21162;SDS011;10739;52.198;20.908;2023-01-08T14:34:56;51.00;;;28.40;;
21162;SDS011;10739;52.198;20.908;2023-01-08T14:37:28;49.05;;;28.90;;
21162;SDS011;10739;52.198;20.908;2023-01-08T14:39:55;48.65;;;27.85;;
21162;SDS011;10739;52.198;20.908;2023-01-08T14:42:23;47.47;;;27.33;;
21162;SDS011;10739;52.198;20.908;2023-01-08T14:45:29;44.58;;;24.80;;
21162;SDS011;10739;52.198;20.908;2023-01-08T14:51:05;45.53;;;25.80;;
21162;SDS011;10739;52.198;20.908;2023-01-08T14:53:42;46.47;;;25.77;;
21162;SDS011;10739;52.198;20.908;2023-01-08T14:56:13;51.70;;;26.42;;
21162;SDS011;10739;52.198;20.908;2023-01-08T14:58:52;46.22;;;24.55;;
21162;SDS011;10739;52.198;20.908;2023-01-08T15:04:15;52.83;;;26.17;;
21162;SDS011;10739;52.198;20.908;2023-01-08T15:06:46;45.30;;;24.85;;
21162;SDS011;10739;52.198;20.908;2023-01-08T15:09:19;42.80;;;25.00;;
21162;SDS011;10739;52.198;20.908;2023-01-08T15:11:56;48.92;;;25.83;;
21162;SDS011;10739;52.198;20.908;2023-01-08T15:14:27;52.33;;;27.02;;
21162;SDS011;10739;52.198;20.908;2023-01-08T15:16:56;47.25;;;27.30;;
21162;SDS011;10739;52.198;20.908;2023-01-08T15:19:45;45.25;;;25.65;;
21162;SDS011;10739;52.198;20.908;2023-01-08T15:22:20;41.83;;;24.33;;
21162;SDS011;10739;52.198;20.908;2023-01-08T15:24:58;44.58;;;25.38;;
21162;SDS011;10739;52.198;20.908;2023-01-08T15:27:30;47.38;;;26.40;;
21162;SDS011;10739;52.198;20.908;2023-01-08T15:30:02;44.83;;;24.52;;
21162;SDS011;10739;52.198;20.908;2023-01-08T15:32:37;30.43;;;17.17;;
21162;SDS011;10739;52.198;20.908;2023-01-08T15:35:11;44.55;;;25.92;;
21162;SDS011;10739;52.198;20.908;2023-01-08T15:37:41;44.95;;;26.42;;
21162;SDS011;10739;52.198;20.908;2023-01-08T15:40:12;48.00;;;26.30;;
21162;SDS011;10739;52.198;20.908;2023-01-08T15:42:38;48.67;;;26.73;;
21162;SDS011;10739;52.198;20.908;2023-01-08T15:45:27;45.30;;;26.30;;
21162;SDS011;10739;52.198;20.908;2023-01-08T15:47:58;46.97;;;26.80;;
21162;SDS011;10739;52.198;20.908;2023-01-08T15:50:25;47.22;;;26.13;;
21162;SDS011;10739;52.198;20.908;2023-01-08T15:52:53;45.72;;;26.20;;
21162;SDS011;10739;52.198;20.908;2023-01-08T15:55:25;46.00;;;25.55;;
21162;SDS011;10739;52.198;20.908;2023-01-08T15:57:51;44.15;;;25.98;;
21162;SDS011;10739;52.198;20.908;2023-01-08T16:00:20;42.92;;;24.25;;
21162;SDS011;10739;52.198;20.908;2023-01-08T16:02:47;44.75;;;26.35;;
21162;SDS011;10739;52.198;20.908;2023-01-08T16:05:17;44.97;;;25.85;;
21162;SDS011;10739;52.198;20.908;2023-01-08T16:07:47;49.50;;;26.65;;
21162;SDS011;10739;52.198;20.908;2023-01-08T16:10:13;49.97;;;27.80;;
21162;SDS011;10739;52.198;20.908;2023-01-08T16:12:41;45.67;;;26.88;;
21162;SDS011;10739;52.198;20.908;2023-01-08T16:15:08;50.00;;;27.63;;
21162;SDS011;10739;52.198;20.908;2023-01-08T16:17:36;45.50;;;26.42;;
21162;SDS011;10739;52.198;20.908;2023-01-08T16:20:03;44.05;;;25.02;;
21162;SDS011;10739;52.198;20.908;2023-01-08T16:22:31;44.72;;;26.63;;
21162;SDS011;10739;52.198;20.908;2023-01-08T16:24:58;47.83;;;27.90;;
21162;SDS011;10739;52.198;20.908;2023-01-08T16:27:24;45.88;;;26.50;;
21162;SDS011;10739;52.198;20.908;2023-01-08T16:29:51;46.72;;;26.95;;